Magnitogorsk, Russia
Current Conditions -  °F | °C
As of 4:00 AM on Thursday 23 Oct 2014 (Local Time) from USCM Reporting Station
Overcast Overcast  
Wind Chill: 24°   Ceiling: 10000
Heat Index: 34°   Visibility: 5mi
Dew Point: 28°   Wind: 16mph
Humidity: 81%   Direction: 260°W
Pressure: 29.47"   Gusts: NA
Location:  53.42°N, 58.97°E
Report Text: USCM 222200Z 26007MPS 8000 OVC100 01/M02 Q0998 NOSIG 19290255RMK QFE712
Loading
Personal Weather Stations






























Interactive Weather Map
Tropical Storm Tracking
New forecast layout! Learn more

10-Day Weather Forecast

Advertisements
Track Severe Weather on mobile